KTVC

UTC

Cherry Capital Airport

Traverse City, Michigan, United States

TAF Report

KTVC 041721Z 0418/0518 02007KT P6SM FEW240 FM050900 00000KT P6SM BKN090 FM051300 22005KT 6SM HZ SCT080 FM051600 32008G12KT 6SM HZ SKC

Issued

Jun 04 17:21 UTC

Valid From

Jun 04 18:00 UTC

Valid To

Jun 05 18:00 UTC

TAF Sections

  1. Jun 04 18:00 UTC - Jun 05 09:00 UTC

    TAF KTVC 041721Z 0418/0518 02007KT P6SM FEW240

    Wind

    020° at 7 KTS

    Visibility

    Greater than 6 SM

    Clouds

    • Few at 24,000 ft AGL
  2. Jun 05 09:00 UTC - Jun 05 13:00 UTC

    FM050900 00000KT P6SM BKN090

    Visibility

    Greater than 6 SM

    Clouds

    • Broken at 9,000 ft AGL

    Ceiling

    Broken at 9,000 ft AGL

  3. Jun 05 13:00 UTC - Jun 05 16:00 UTC

    FM051300 22005KT 6SM HZ SCT080

    Wind

    220° at 5 KTS

    Visibility

    6 SM

    Conditions

    • Haze

    Clouds

    • Scattered at 8,000 ft AGL
  4. Jun 05 16:00 UTC - Jun 05 18:00 UTC

    FM051600 32008G12KT 6SM HZ SKC

    Wind

    320° at 8 KTS
    Gusting to 12 KTS

    Visibility

    6 SM

    Conditions

    • Haze

    Clouds

    • Clear skies